sensor_id;sensor_type;location;lat;lon;timestamp;pressure;altitude;pressure_sealevel;temperature;humidity
51452;BME280;37521;52.020;-1.740;2024-01-30T00:00:03;100147.47;;;8.62;100.00
51452;BME280;37521;52.020;-1.740;2024-01-30T00:02:32;100145.84;;;8.60;100.00
51452;BME280;37521;52.020;-1.740;2024-01-30T00:05:01;100148.59;;;8.57;100.00
51452;BME280;37521;52.020;-1.740;2024-01-30T00:07:30;100135.59;;;8.52;100.00
51452;BME280;37521;52.020;-1.740;2024-01-30T00:09:59;100146.28;;;8.48;100.00
51452;BME280;37521;52.020;-1.740;2024-01-30T00:12:28;100150.09;;;8.39;100.00
51452;BME280;37521;52.020;-1.740;2024-01-30T00:14:59;100147.69;;;8.31;100.00
51452;BME280;37521;52.020;-1.740;2024-01-30T00:17:29;100141.78;;;8.25;100.00
51452;BME280;37521;52.020;-1.740;2024-01-30T00:19:58;100154.34;;;8.16;100.00
51452;BME280;37521;52.020;-1.740;2024-01-30T00:22:27;100157.13;;;8.12;100.00
51452;BME280;37521;52.020;-1.740;2024-01-30T00:24:57;100154.75;;;8.04;100.00
51452;BME280;37521;52.020;-1.740;2024-01-30T00:27:26;100151.41;;;7.99;100.00
51452;BME280;37521;52.020;-1.740;2024-01-30T00:29:55;100143.78;;;7.91;100.00
51452;BME280;37521;52.020;-1.740;2024-01-30T00:32:24;100145.66;;;7.88;100.00
51452;BME280;37521;52.020;-1.740;2024-01-30T00:34:54;100146.69;;;7.84;100.00
51452;BME280;37521;52.020;-1.740;2024-01-30T00:37:23;100148.53;;;7.80;100.00
51452;BME280;37521;52.020;-1.740;2024-01-30T00:39:52;100146.88;;;7.78;100.00
51452;BME280;37521;52.020;-1.740;2024-01-30T00:42:21;100160.94;;;7.77;100.00
51452;BME280;37521;52.020;-1.740;2024-01-30T00:44:50;100164.47;;;7.76;100.00
51452;BME280;37521;52.020;-1.740;2024-01-30T00:47:19;100160.16;;;7.73;100.00
51452;BME280;37521;52.020;-1.740;2024-01-30T00:49:48;100165.56;;;7.69;100.00
51452;BME280;37521;52.020;-1.740;2024-01-30T00:52:18;100168.28;;;7.65;100.00
51452;BME280;37521;52.020;-1.740;2024-01-30T00:54:47;100175.38;;;7.63;100.00
51452;BME280;37521;52.020;-1.740;2024-01-30T00:57:16;100171.13;;;7.59;100.00
51452;BME280;37521;52.020;-1.740;2024-01-30T00:59:44;100177.28;;;7.58;100.00
51452;BME280;37521;52.020;-1.740;2024-01-30T01:02:13;100180.00;;;7.55;100.00
51452;BME280;37521;52.020;-1.740;2024-01-30T01:04:44;100183.59;;;7.53;100.00
51452;BME280;37521;52.020;-1.740;2024-01-30T01:07:13;100178.47;;;7.48;100.00
51452;BME280;37521;52.020;-1.740;2024-01-30T01:09:43;100178.50;;;7.47;100.00
51452;BME280;37521;52.020;-1.740;2024-01-30T01:12:12;100179.47;;;7.44;100.00
51452;BME280;37521;52.020;-1.740;2024-01-30T01:14:41;100173.44;;;7.41;100.00
51452;BME280;37521;52.020;-1.740;2024-01-30T01:17:09;100170.88;;;7.39;100.00
51452;BME280;37521;52.020;-1.740;2024-01-30T01:19:38;100167.53;;;7.34;100.00
51452;BME280;37521;52.020;-1.740;2024-01-30T01:22:07;100162.44;;;7.28;100.00
51452;BME280;37521;52.020;-1.740;2024-01-30T01:24:36;100170.50;;;7.23;100.00
51452;BME280;37521;52.020;-1.740;2024-01-30T01:27:07;100162.69;;;7.20;100.00
51452;BME280;37521;52.020;-1.740;2024-01-30T01:29:36;100158.34;;;7.19;100.00
51452;BME280;37521;52.020;-1.740;2024-01-30T01:32:05;100161.94;;;7.15;100.00
51452;BME280;37521;52.020;-1.740;2024-01-30T01:34:34;100171.72;;;7.12;100.00
51452;BME280;37521;52.020;-1.740;2024-01-30T01:37:03;100170.06;;;7.07;100.00
51452;BME280;37521;52.020;-1.740;2024-01-30T01:39:32;100179.72;;;7.07;100.00
51452;BME280;37521;52.020;-1.740;2024-01-30T01:42:00;100170.13;;;7.06;100.00
51452;BME280;37521;52.020;-1.740;2024-01-30T01:44:30;100157.03;;;7.04;100.00
51452;BME280;37521;52.020;-1.740;2024-01-30T01:46:59;100162.38;;;7.01;100.00
51452;BME280;37521;52.020;-1.740;2024-01-30T01:49:28;100164.19;;;6.99;100.00
51452;BME280;37521;52.020;-1.740;2024-01-30T01:51:58;100159.84;;;6.98;100.00
51452;BME280;37521;52.020;-1.740;2024-01-30T01:54:28;100159.91;;;6.95;100.00
51452;BME280;37521;52.020;-1.740;2024-01-30T01:56:57;100169.53;;;6.96;100.00
51452;BME280;37521;52.020;-1.740;2024-01-30T01:59:26;100163.38;;;6.97;100.00
51452;BME280;37521;52.020;-1.740;2024-01-30T02:01:57;100165.09;;;6.98;100.00
51452;BME280;37521;52.020;-1.740;2024-01-30T02:04:26;100162.47;;;6.98;100.00
51452;BME280;37521;52.020;-1.740;2024-01-30T02:06:55;100162.53;;;6.97;100.00
51452;BME280;37521;52.020;-1.740;2024-01-30T02:09:24;100159.91;;;6.97;100.00
51452;BME280;37521;52.020;-1.740;2024-01-30T02:11:52;100159.06;;;6.95;100.00
51452;BME280;37521;52.020;-1.740;2024-01-30T02:14:21;100168.69;;;6.94;100.00
51452;BME280;37521;52.020;-1.740;2024-01-30T02:16:53;100159.97;;;6.94;100.00
51452;BME280;37521;52.020;-1.740;2024-01-30T02:19:23;100162.59;;;6.94;100.00
51452;BME280;37521;52.020;-1.740;2024-01-30T02:21:53;100172.22;;;6.93;100.00
51452;BME280;37521;52.020;-1.740;2024-01-30T02:24:22;100174.06;;;6.91;100.00
51452;BME280;37521;52.020;-1.740;2024-01-30T02:26:51;100185.41;;;6.92;100.00
51452;BME280;37521;52.020;-1.740;2024-01-30T02:29:20;100188.91;;;6.92;100.00
51452;BME280;37521;52.020;-1.740;2024-01-30T02:31:49;100178.41;;;6.92;100.00
51452;BME280;37521;52.020;-1.740;2024-01-30T02:34:18;100187.13;;;6.93;100.00
51452;BME280;37521;52.020;-1.740;2024-01-30T02:36:47;100192.38;;;6.93;100.00
51452;BME280;37521;52.020;-1.740;2024-01-30T02:39:17;100187.13;;;6.93;100.00
51452;BME280;37521;52.020;-1.740;2024-01-30T02:41:46;100187.97;;;6.93;100.00
51452;BME280;37521;52.020;-1.740;2024-01-30T02:44:15;100189.69;;;6.94;100.00
51452;BME280;37521;52.020;-1.740;2024-01-30T02:46:44;100187.06;;;6.94;100.00
51452;BME280;37521;52.020;-1.740;2024-01-30T02:49:13;100184.44;;;6.94;100.00
51452;BME280;37521;52.020;-1.740;2024-01-30T02:51:42;100189.69;;;6.94;100.00
51452;BME280;37521;52.020;-1.740;2024-01-30T02:54:11;100191.41;;;6.95;100.00
51452;BME280;37521;52.020;-1.740;2024-01-30T02:56:41;100184.44;;;6.94;100.00
51452;BME280;37521;52.020;-1.740;2024-01-30T02:59:10;100189.69;;;6.94;100.00
51452;BME280;37521;52.020;-1.740;2024-01-30T03:01:44;100193.19;;;6.95;100.00
51452;BME280;37521;52.020;-1.740;2024-01-30T03:04:14;100201.91;;;6.97;100.00
51452;BME280;37521;52.020;-1.740;2024-01-30T03:06:45;100204.53;;;6.95;100.00
51452;BME280;37521;52.020;-1.740;2024-01-30T03:09:16;100201.91;;;6.95;100.00
51452;BME280;37521;52.020;-1.740;2024-01-30T03:11:47;100206.25;;;6.98;100.00
51452;BME280;37521;52.020;-1.740;2024-01-30T03:14:16;100207.94;;;6.99;100.00
51452;BME280;37521;52.020;-1.740;2024-01-30T03:16:44;100208.88;;;6.98;100.00
51452;BME280;37521;52.020;-1.740;2024-01-30T03:19:13;100206.25;;;6.98;100.00
51452;BME280;37521;52.020;-1.740;2024-01-30T03:21:42;100208.91;;;6.96;100.00
51452;BME280;37521;52.020;-1.740;2024-01-30T03:24:11;100213.31;;;6.96;100.00
51452;BME280;37521;52.020;-1.740;2024-01-30T03:26:39;100221.13;;;6.97;100.00
51452;BME280;37521;52.020;-1.740;2024-01-30T03:29:10;100238.66;;;6.95;100.00
51452;BME280;37521;52.020;-1.740;2024-01-30T03:31:39;100243.31;;;6.86;100.00
51452;BME280;37521;52.020;-1.740;2024-01-30T03:34:07;100241.88;;;6.75;100.00
51452;BME280;37521;52.020;-1.740;2024-01-30T03:36:36;100252.53;;;6.69;100.00
51452;BME280;37521;52.020;-1.740;2024-01-30T03:39:05;100255.41;;;6.59;100.00
51452;BME280;37521;52.020;-1.740;2024-01-30T03:41:34;100252.34;;;6.41;100.00
51452;BME280;37521;52.020;-1.740;2024-01-30T03:44:03;100256.28;;;6.25;100.00
51452;BME280;37521;52.020;-1.740;2024-01-30T03:46:33;100268.84;;;6.11;100.00
51452;BME280;37521;52.020;-1.740;2024-01-30T03:49:02;100272.81;;;5.91;100.00
51452;BME280;37521;52.020;-1.740;2024-01-30T03:51:31;100285.47;;;5.71;100.00
51452;BME280;37521;52.020;-1.740;2024-01-30T03:54:00;100278.84;;;5.53;100.00
51452;BME280;37521;52.020;-1.740;2024-01-30T03:56:29;100271.38;;;5.35;100.00
51452;BME280;37521;52.020;-1.740;2024-01-30T03:58:58;100284.72;;;5.24;100.00
51452;BME280;37521;52.020;-1.740;2024-01-30T04:01:27;100289.19;;;5.17;100.00
51452;BME280;37521;52.020;-1.740;2024-01-30T04:03:58;100299.81;;;5.10;100.00
51452;BME280;37521;52.020;-1.740;2024-01-30T04:06:27;100298.16;;;5.06;100.00
51452;BME280;37521;52.020;-1.740;2024-01-30T04:08:55;100307.00;;;4.99;100.00
51452;BME280;37521;52.020;-1.740;2024-01-30T04:11:24;100309.78;;;4.91;100.00
51452;BME280;37521;52.020;-1.740;2024-01-30T04:13:53;100312.44;;;4.88;100.00
51452;BME280;37521;52.020;-1.740;2024-01-30T04:16:22;100323.81;;;4.85;100.00
51452;BME280;37521;52.020;-1.740;2024-01-30T04:18:51;100329.06;;;4.85;100.00
51452;BME280;37521;52.020;-1.740;2024-01-30T04:21:22;100331.69;;;4.84;100.00
51452;BME280;37521;52.020;-1.740;2024-01-30T04:23:51;100340.44;;;4.83;100.00
51452;BME280;37521;52.020;-1.740;2024-01-30T04:26:20;100351.81;;;4.82;100.00
51452;BME280;37521;52.020;-1.740;2024-01-30T04:28:49;100348.38;;;4.78;100.00
51452;BME280;37521;52.020;-1.740;2024-01-30T04:31:17;100364.06;;;4.78;100.00
51452;BME280;37521;52.020;-1.740;2024-01-30T04:33:46;100365.84;;;4.76;100.00
51452;BME280;37521;52.020;-1.740;2024-01-30T04:36:15;100375.53;;;4.71;100.00
51452;BME280;37521;52.020;-1.740;2024-01-30T04:38:45;100376.41;;;4.70;100.00
51452;BME280;37521;52.020;-1.740;2024-01-30T04:41:14;100383.44;;;4.68;100.00
51452;BME280;37521;52.020;-1.740;2024-01-30T04:43:43;100392.13;;;4.67;100.00
51452;BME280;37521;52.020;-1.740;2024-01-30T04:46:11;100403.53;;;4.64;100.00
51452;BME280;37521;52.020;-1.740;2024-01-30T04:48:40;100410.53;;;4.62;100.00
51452;BME280;37521;52.020;-1.740;2024-01-30T04:51:09;100418.34;;;4.64;100.00
51452;BME280;37521;52.020;-1.740;2024-01-30T04:53:38;100416.66;;;4.60;100.00
51452;BME280;37521;52.020;-1.740;2024-01-30T04:56:08;100415.84;;;4.58;100.00
51452;BME280;37521;52.020;-1.740;2024-01-30T04:58:37;100431.53;;;4.58;100.00
51452;BME280;37521;52.020;-1.740;2024-01-30T05:01:06;100421.94;;;4.57;100.00
51452;BME280;37521;52.020;-1.740;2024-01-30T05:03:35;100425.47;;;4.56;100.00
51452;BME280;37521;52.020;-1.740;2024-01-30T05:06:04;100439.44;;;4.55;100.00
51452;BME280;37521;52.020;-1.740;2024-01-30T05:08:33;100430.72;;;4.53;100.00
51452;BME280;37521;52.020;-1.740;2024-01-30T05:11:04;100434.28;;;4.49;100.00
51452;BME280;37521;52.020;-1.740;2024-01-30T05:13:35;100444.69;;;4.52;100.00
51452;BME280;37521;52.020;-1.740;2024-01-30T05:16:04;100456.88;;;4.53;100.00
51452;BME280;37521;52.020;-1.740;2024-01-30T05:18:33;100462.16;;;4.50;100.00
51452;BME280;37521;52.020;-1.740;2024-01-30T05:21:02;100470.91;;;4.49;100.00
51452;BME280;37521;52.020;-1.740;2024-01-30T05:23:31;100463.97;;;4.45;100.00
51452;BME280;37521;52.020;-1.740;2024-01-30T05:26:00;100480.50;;;4.45;100.00
51452;BME280;37521;52.020;-1.740;2024-01-30T05:28:30;100484.88;;;4.45;100.00
51452;BME280;37521;52.020;-1.740;2024-01-30T05:31:00;100486.59;;;4.46;100.00
51452;BME280;37521;52.020;-1.740;2024-01-30T05:33:28;100497.97;;;4.43;100.00
51452;BME280;37521;52.020;-1.740;2024-01-30T05:35:57;100496.22;;;4.44;100.00
51452;BME280;37521;52.020;-1.740;2024-01-30T05:38:26;100502.34;;;4.43;100.00
51452;BME280;37521;52.020;-1.740;2024-01-30T05:40:57;100508.47;;;4.40;100.00
51452;BME280;37521;52.020;-1.740;2024-01-30T05:43:26;100518.06;;;4.40;100.00
51452;BME280;37521;52.020;-1.740;2024-01-30T05:45:55;100525.97;;;4.36;100.00
51452;BME280;37521;52.020;-1.740;2024-01-30T05:48:25;100523.38;;;4.33;100.00
51452;BME280;37521;52.020;-1.740;2024-01-30T05:50:54;100532.97;;;4.33;100.00
51452;BME280;37521;52.020;-1.740;2024-01-30T05:53:24;100538.25;;;4.30;100.00
51452;BME280;37521;52.020;-1.740;2024-01-30T05:55:52;100544.34;;;4.27;100.00
51452;BME280;37521;52.020;-1.740;2024-01-30T05:58:21;100539.16;;;4.26;100.00
51452;BME280;37521;52.020;-1.740;2024-01-30T06:00:50;100540.03;;;4.25;100.00
51452;BME280;37521;52.020;-1.740;2024-01-30T06:03:19;100557.44;;;4.26;100.00
51452;BME280;37521;52.020;-1.740;2024-01-30T06:05:49;100560.09;;;4.24;100.00
51452;BME280;37521;52.020;-1.740;2024-01-30T06:08:18;100573.13;;;4.26;100.00
51452;BME280;37521;52.020;-1.740;2024-01-30T06:10:47;100579.22;;;4.26;100.00
51452;BME280;37521;52.020;-1.740;2024-01-30T06:13:16;100582.72;;;4.25;100.00
51452;BME280;37521;52.020;-1.740;2024-01-30T06:15:45;100589.72;;;4.23;100.00
51452;BME280;37521;52.020;-1.740;2024-01-30T06:18:14;100581.00;;;4.21;100.00
51452;BME280;37521;52.020;-1.740;2024-01-30T06:20:42;100586.28;;;4.18;100.00
51452;BME280;37521;52.020;-1.740;2024-01-30T06:23:12;100603.75;;;4.16;100.00
51452;BME280;37521;52.020;-1.740;2024-01-30T06:25:41;100605.47;;;4.14;100.00
51452;BME280;37521;52.020;-1.740;2024-01-30T06:28:10;100617.72;;;4.12;100.00
51452;BME280;37521;52.020;-1.740;2024-01-30T06:30:39;100619.44;;;4.13;100.00
51452;BME280;37521;52.020;-1.740;2024-01-30T06:33:08;100614.22;;;4.13;100.00
51452;BME280;37521;52.020;-1.740;2024-01-30T06:35:36;100614.22;;;4.13;100.00
51452;BME280;37521;52.020;-1.740;2024-01-30T06:38:12;100618.56;;;4.13;100.00
51452;BME280;37521;52.020;-1.740;2024-01-30T06:40:42;100620.31;;;4.15;100.00
51452;BME280;37521;52.020;-1.740;2024-01-30T06:43:11;100628.16;;;4.15;100.00
51452;BME280;37521;52.020;-1.740;2024-01-30T06:45:40;100628.16;;;4.15;100.00
51452;BME280;37521;52.020;-1.740;2024-01-30T06:48:09;100638.59;;;4.15;100.00
51452;BME280;37521;52.020;-1.740;2024-01-30T06:50:38;100647.28;;;4.17;100.00
51452;BME280;37521;52.020;-1.740;2024-01-30T06:53:07;100654.25;;;4.18;100.00
51452;BME280;37521;52.020;-1.740;2024-01-30T06:55:37;100654.25;;;4.17;100.00
51452;BME280;37521;52.020;-1.740;2024-01-30T06:58:06;100666.47;;;4.16;100.00
51452;BME280;37521;52.020;-1.740;2024-01-30T07:00:34;100653.41;;;4.15;100.00
51452;BME280;37521;52.020;-1.740;2024-01-30T07:03:03;100666.47;;;4.16;100.00
51452;BME280;37521;52.020;-1.740;2024-01-30T07:05:33;100668.22;;;4.14;100.00
51452;BME280;37521;52.020;-1.740;2024-01-30T07:08:01;100679.56;;;4.15;100.00
51452;BME280;37521;52.020;-1.740;2024-01-30T07:10:30;100687.38;;;4.13;100.00
51452;BME280;37521;52.020;-1.740;2024-01-30T07:13:01;100693.47;;;4.14;100.00
51452;BME280;37521;52.020;-1.740;2024-01-30T07:15:31;100698.75;;;4.10;100.00
51452;BME280;37521;52.020;-1.740;2024-01-30T07:18:00;100703.97;;;4.10;100.00
51452;BME280;37521;52.020;-1.740;2024-01-30T07:20:29;100700.47;;;4.12;100.00
51452;BME280;37521;52.020;-1.740;2024-01-30T07:22:59;100717.00;;;4.12;100.00
51452;BME280;37521;52.020;-1.740;2024-01-30T07:25:27;100728.31;;;4.14;100.00
51452;BME280;37521;52.020;-1.740;2024-01-30T07:27:57;100737.91;;;4.15;100.00
51452;BME280;37521;52.020;-1.740;2024-01-30T07:30:27;100735.31;;;4.15;100.00
51452;BME280;37521;52.020;-1.740;2024-01-30T07:32:56;100747.50;;;4.15;100.00
51452;BME280;37521;52.020;-1.740;2024-01-30T07:35:24;100745.75;;;4.14;100.00
51452;BME280;37521;52.020;-1.740;2024-01-30T07:37:53;100762.34;;;4.11;100.00
51452;BME280;37521;52.020;-1.740;2024-01-30T07:40:22;100767.56;;;4.09;100.00
51452;BME280;37521;52.020;-1.740;2024-01-30T07:42:52;100772.78;;;4.11;100.00
51452;BME280;37521;52.020;-1.740;2024-01-30T07:45:21;100772.78;;;4.11;100.00
51452;BME280;37521;52.020;-1.740;2024-01-30T07:47:53;100771.91;;;4.10;100.00
51452;BME280;37521;52.020;-1.740;2024-01-30T07:50:22;100771.91;;;4.10;100.00
51452;BME280;37521;52.020;-1.740;2024-01-30T07:52:51;100784.13;;;4.07;100.00
51452;BME280;37521;52.020;-1.740;2024-01-30T07:55:22;100778.06;;;4.05;100.00
51452;BME280;37521;52.020;-1.740;2024-01-30T07:57:52;100791.97;;;4.07;100.00
51452;BME280;37521;52.020;-1.740;2024-01-30T08:00:21;100800.69;;;4.06;100.00
51452;BME280;37521;52.020;-1.740;2024-01-30T08:02:50;100804.19;;;4.05;100.00
51452;BME280;37521;52.020;-1.740;2024-01-30T08:05:23;100805.06;;;4.04;100.00
51452;BME280;37521;52.020;-1.740;2024-01-30T08:07:52;100813.78;;;4.04;100.00
51452;BME280;37521;52.020;-1.740;2024-01-30T08:10:20;100809.44;;;4.02;100.00
51452;BME280;37521;52.020;-1.740;2024-01-30T08:12:49;100814.66;;;4.00;100.00
51452;BME280;37521;52.020;-1.740;2024-01-30T08:15:18;100813.78;;;4.00;100.00
51452;BME280;37521;52.020;-1.740;2024-01-30T08:17:47;100816.41;;;4.03;100.00
51452;BME280;37521;52.020;-1.740;2024-01-30T08:20:16;100819.03;;;4.01;100.00
51452;BME280;37521;52.020;-1.740;2024-01-30T08:22:46;100823.38;;;4.01;100.00
51452;BME280;37521;52.020;-1.740;2024-01-30T08:25:15;100819.91;;;4.02;100.00
51452;BME280;37521;52.020;-1.740;2024-01-30T08:27:44;100833.81;;;4.04;100.00
51452;BME280;37521;52.020;-1.740;2024-01-30T08:30:13;100828.56;;;4.07;100.00
51452;BME280;37521;52.020;-1.740;2024-01-30T08:32:42;100835.53;;;4.08;100.00
51452;BME280;37521;52.020;-1.740;2024-01-30T08:35:11;100839.00;;;4.07;100.00
51452;BME280;37521;52.020;-1.740;2024-01-30T08:37:43;100844.22;;;4.07;100.00
51452;BME280;37521;52.020;-1.740;2024-01-30T08:40:13;100844.22;;;4.07;100.00
51452;BME280;37521;52.020;-1.740;2024-01-30T08:42:42;100845.09;;;4.09;100.00
51452;BME280;37521;52.020;-1.740;2024-01-30T08:45:11;100853.81;;;4.09;100.00
51452;BME280;37521;52.020;-1.740;2024-01-30T08:47:40;100866.88;;;4.11;100.00
51452;BME280;37521;52.020;-1.740;2024-01-30T08:50:09;100873.81;;;4.15;100.00
51452;BME280;37521;52.020;-1.740;2024-01-30T08:52:38;100879.06;;;4.15;100.00
51452;BME280;37521;52.020;-1.740;2024-01-30T08:55:07;100879.91;;;4.14;100.00
51452;BME280;37521;52.020;-1.740;2024-01-30T08:57:38;100892.97;;;4.14;100.00
51452;BME280;37521;52.020;-1.740;2024-01-30T09:00:07;100900.78;;;4.20;100.00
51452;BME280;37521;52.020;-1.740;2024-01-30T09:02:37;100911.22;;;4.23;100.00
51452;BME280;37521;52.020;-1.740;2024-01-30T09:05:06;100907.75;;;4.24;100.00
51452;BME280;37521;52.020;-1.740;2024-01-30T09:07:35;100917.31;;;4.25;100.00
51452;BME280;37521;52.020;-1.740;2024-01-30T09:10:05;100922.53;;;4.28;100.00
51452;BME280;37521;52.020;-1.740;2024-01-30T09:12:39;100928.63;;;4.26;100.00
51452;BME280;37521;52.020;-1.740;2024-01-30T09:15:09;100926.94;;;4.22;100.00
51452;BME280;37521;52.020;-1.740;2024-01-30T09:17:38;100946.09;;;4.19;100.00
51452;BME280;37521;52.020;-1.740;2024-01-30T09:20:07;100941.75;;;4.18;100.00
51452;BME280;37521;52.020;-1.740;2024-01-30T09:22:36;100932.16;;;4.22;100.00
51452;BME280;37521;52.020;-1.740;2024-01-30T09:25:05;100941.72;;;4.24;100.00
51452;BME280;37521;52.020;-1.740;2024-01-30T09:27:34;100950.41;;;4.29;100.00
51452;BME280;37521;52.020;-1.740;2024-01-30T09:30:06;100960.84;;;4.35;100.00
51452;BME280;37521;52.020;-1.740;2024-01-30T09:32:35;100969.50;;;4.41;100.00
51452;BME280;37521;52.020;-1.740;2024-01-30T09:35:04;100966.00;;;4.45;100.00
51452;BME280;37521;52.020;-1.740;2024-01-30T09:37:34;100966.88;;;4.45;100.00
51452;BME280;37521;52.020;-1.740;2024-01-30T09:40:03;100982.53;;;4.47;100.00
51452;BME280;37521;52.020;-1.740;2024-01-30T09:42:34;100991.28;;;4.44;100.00
51452;BME280;37521;52.020;-1.740;2024-01-30T09:45:06;100983.44;;;4.46;100.00
51452;BME280;37521;52.020;-1.740;2024-01-30T09:47:40;100986.06;;;4.44;100.00
51452;BME280;37521;52.020;-1.740;2024-01-30T09:50:10;100993.03;;;4.48;100.00
51452;BME280;37521;52.020;-1.740;2024-01-30T09:52:40;101003.44;;;4.51;100.00
51452;BME280;37521;52.020;-1.740;2024-01-30T09:55:09;101001.69;;;4.55;100.00
51452;BME280;37521;52.020;-1.740;2024-01-30T09:57:39;101000.81;;;4.56;100.00
51452;BME280;37521;52.020;-1.740;2024-01-30T10:00:10;101020.84;;;4.57;100.00
51452;BME280;37521;52.020;-1.740;2024-01-30T10:02:40;101021.72;;;4.57;100.00
51452;BME280;37521;52.020;-1.740;2024-01-30T10:05:09;101023.47;;;4.58;100.00
51452;BME280;37521;52.020;-1.740;2024-01-30T10:07:50;101033.91;;;4.60;100.00
51452;BME280;37521;52.020;-1.740;2024-01-30T10:10:21;101046.09;;;4.61;100.00
51452;BME280;37521;52.020;-1.740;2024-01-30T10:12:50;101047.00;;;4.61;100.00
51452;BME280;37521;52.020;-1.740;2024-01-30T10:15:21;101061.78;;;4.64;100.00
51452;BME280;37521;52.020;-1.740;2024-01-30T10:17:52;101061.81;;;4.59;100.00
51452;BME280;37521;52.020;-1.740;2024-01-30T10:20:24;101063.56;;;4.59;100.00
51452;BME280;37521;52.020;-1.740;2024-01-30T10:22:54;101074.00;;;4.60;100.00
51452;BME280;37521;52.020;-1.740;2024-01-30T10:25:22;101068.78;;;4.62;100.00
51452;BME280;37521;52.020;-1.740;2024-01-30T10:27:54;101072.25;;;4.64;100.00
51452;BME280;37521;52.020;-1.740;2024-01-30T10:30:26;101082.72;;;4.64;100.00
51452;BME280;37521;52.020;-1.740;2024-01-30T10:32:55;101094.03;;;4.66;100.00
51452;BME280;37521;52.020;-1.740;2024-01-30T10:35:24;101104.47;;;4.68;100.00
51452;BME280;37521;52.020;-1.740;2024-01-30T10:37:57;101102.75;;;4.67;100.00
51452;BME280;37521;52.020;-1.740;2024-01-30T10:40:28;101106.28;;;4.62;100.00
51452;BME280;37521;52.020;-1.740;2024-01-30T10:43:00;101108.88;;;4.61;100.00
51452;BME280;37521;52.020;-1.740;2024-01-30T10:45:34;101117.63;;;4.61;100.00
51452;BME280;37521;52.020;-1.740;2024-01-30T10:48:05;101135.03;;;4.61;100.00
51452;BME280;37521;52.020;-1.740;2024-01-30T10:50:37;101136.78;;;4.59;100.00
51452;BME280;37521;52.020;-1.740;2024-01-30T10:53:20;101138.56;;;4.57;100.00
51452;BME280;37521;52.020;-1.740;2024-01-30T10:55:51;101137.66;;;4.61;100.00
51452;BME280;37521;52.020;-1.740;2024-01-30T10:58:21;101151.59;;;4.64;100.00
51452;BME280;37521;52.020;-1.740;2024-01-30T11:00:52;101150.72;;;4.64;100.00
51452;BME280;37521;52.020;-1.740;2024-01-30T11:03:22;101162.09;;;4.61;100.00
51452;BME280;37521;52.020;-1.740;2024-01-30T11:05:52;101167.31;;;4.60;100.00
51452;BME280;37521;52.020;-1.740;2024-01-30T11:08:24;101158.63;;;4.55;100.00
51452;BME280;37521;52.020;-1.740;2024-01-30T11:10:56;101185.63;;;4.54;100.00
51452;BME280;37521;52.020;-1.740;2024-01-30T11:13:29;101173.44;;;4.56;100.00
51452;BME280;37521;52.020;-1.740;2024-01-30T11:16:05;101183.00;;;4.58;100.00
51452;BME280;37521;52.020;-1.740;2024-01-30T11:18:35;101185.59;;;4.60;100.00
51452;BME280;37521;52.020;-1.740;2024-01-30T11:21:05;101187.34;;;4.61;100.00
51452;BME280;37521;52.020;-1.740;2024-01-30T11:23:34;101187.34;;;4.64;100.00
51452;BME280;37521;52.020;-1.740;2024-01-30T11:26:05;101190.84;;;4.63;100.00
51452;BME280;37521;52.020;-1.740;2024-01-30T11:28:37;101194.34;;;4.62;100.00
51452;BME280;37521;52.020;-1.740;2024-01-30T11:31:08;101192.59;;;4.64;100.00
51452;BME280;37521;52.020;-1.740;2024-01-30T11:33:39;101184.69;;;4.73;100.00
51452;BME280;37521;52.020;-1.740;2024-01-30T11:36:08;101182.06;;;4.78;100.00
51452;BME280;37521;52.020;-1.740;2024-01-30T11:38:37;101186.41;;;4.85;100.00
51452;BME280;37521;52.020;-1.740;2024-01-30T11:41:09;101183.78;;;4.89;100.00
51452;BME280;37521;52.020;-1.740;2024-01-30T11:43:38;101188.16;;;4.89;100.00
51452;BME280;37521;52.020;-1.740;2024-01-30T11:46:08;101198.63;;;4.84;100.00
51452;BME280;37521;52.020;-1.740;2024-01-30T11:48:37;101199.50;;;4.80;100.00
51452;BME280;37521;52.020;-1.740;2024-01-30T11:51:06;101206.50;;;4.72;100.00
51452;BME280;37521;52.020;-1.740;2024-01-30T11:53:35;101200.44;;;4.62;100.00
51452;BME280;37521;52.020;-1.740;2024-01-30T11:56:06;101209.19;;;4.57;100.00
51452;BME280;37521;52.020;-1.740;2024-01-30T11:58:35;101204.81;;;4.56;100.00
51452;BME280;37521;52.020;-1.740;2024-01-30T12:01:04;101211.78;;;4.60;100.00
51452;BME280;37521;52.020;-1.740;2024-01-30T12:03:35;101220.50;;;4.62;100.00
51452;BME280;37521;52.020;-1.740;2024-01-30T12:06:04;101204.78;;;4.65;100.00
51452;BME280;37521;52.020;-1.740;2024-01-30T12:08:34;101210.00;;;4.73;100.00
51452;BME280;37521;52.020;-1.740;2024-01-30T12:11:03;101211.72;;;4.74;100.00
51452;BME280;37521;52.020;-1.740;2024-01-30T12:13:32;101214.31;;;4.81;100.00
51452;BME280;37521;52.020;-1.740;2024-01-30T12:16:02;101213.44;;;4.88;100.00
51452;BME280;37521;52.020;-1.740;2024-01-30T12:18:31;101211.69;;;4.90;100.00
51452;BME280;37521;52.020;-1.740;2024-01-30T12:21:05;101225.63;;;4.86;100.00
51452;BME280;37521;52.020;-1.740;2024-01-30T12:23:35;101216.06;;;4.79;100.00
51452;BME280;37521;52.020;-1.740;2024-01-30T12:26:04;101225.66;;;4.80;100.00
51452;BME280;37521;52.020;-1.740;2024-01-30T12:28:34;101218.69;;;4.82;100.00
51452;BME280;37521;52.020;-1.740;2024-01-30T12:31:03;101221.28;;;4.85;100.00
51452;BME280;37521;52.020;-1.740;2024-01-30T12:33:33;101212.53;;;4.88;100.00
51452;BME280;37521;52.020;-1.740;2024-01-30T12:36:02;101228.25;;;4.91;100.00
51452;BME280;37521;52.020;-1.740;2024-01-30T12:38:32;101235.25;;;4.89;100.00
51452;BME280;37521;52.020;-1.740;2024-01-30T12:41:01;101239.63;;;4.88;100.00
51452;BME280;37521;52.020;-1.740;2024-01-30T12:43:31;101243.09;;;4.81;100.00
51452;BME280;37521;52.020;-1.740;2024-01-30T12:46:05;101242.28;;;4.70;100.00
51452;BME280;37521;52.020;-1.740;2024-01-30T12:48:34;101250.13;;;4.67;100.00
51452;BME280;37521;52.020;-1.740;2024-01-30T12:51:04;101248.38;;;4.66;100.00